createdAt,value
2018-03-28T00:00:10.174Z,97.00
2018-03-28T00:02:38.738Z,97.00
2018-03-28T00:05:07.648Z,97.00
2018-03-28T00:07:35.826Z,97.00
2018-03-28T00:10:04.182Z,97.00
2018-03-28T00:12:32.350Z,97.00
2018-03-28T00:15:01.273Z,97.10
2018-03-28T00:17:29.463Z,97.10
2018-03-28T00:19:57.645Z,97.20
2018-03-28T00:22:25.892Z,97.20
2018-03-28T00:24:54.077Z,97.30
2018-03-28T00:27:22.238Z,97.30
2018-03-28T00:29:50.412Z,97.40
2018-03-28T00:32:18.843Z,97.60
2018-03-28T00:34:46.991Z,97.60
2018-03-28T00:37:15.353Z,97.60
2018-03-28T00:39:43.519Z,97.70
2018-03-28T00:42:11.678Z,97.70
2018-03-28T00:44:40.145Z,97.70
2018-03-28T00:47:09.076Z,97.70
2018-03-28T00:49:37.431Z,97.70
2018-03-28T00:52:06.314Z,97.70
2018-03-28T00:54:34.484Z,97.70
2018-03-28T00:57:03.079Z,97.70
2018-03-28T00:59:31.292Z,97.70
2018-03-28T01:01:59.530Z,97.70
2018-03-28T01:04:27.797Z,97.70
2018-03-28T01:06:56.170Z,97.60
2018-03-28T01:09:25.129Z,97.60
2018-03-28T01:11:53.270Z,97.60
2018-03-28T01:14:21.427Z,97.70
2018-03-28T01:16:49.901Z,97.70
2018-03-28T01:19:18.062Z,97.80
2018-03-28T01:21:46.962Z,97.90
2018-03-28T01:24:15.548Z,97.90
2018-03-28T01:26:43.696Z,97.90
2018-03-28T01:29:12.613Z,98.20
2018-03-28T01:31:40.771Z,98.20
2018-03-28T01:34:09.164Z,98.20
2018-03-28T01:36:38.076Z,98.40
2018-03-28T01:39:06.362Z,98.40
2018-03-28T01:41:34.525Z,98.40
2018-03-28T01:44:02.869Z,98.40
2018-03-28T01:46:31.871Z,98.50
2018-03-28T01:49:00.393Z,98.50
2018-03-28T01:51:28.556Z,98.90
2018-03-28T01:53:56.751Z,98.50
2018-03-28T01:56:24.919Z,98.50
2018-03-28T01:58:53.131Z,98.50
2018-03-28T02:01:21.375Z,98.40
2018-03-28T02:03:49.691Z,98.40
2018-03-28T02:06:18.604Z,98.10
2018-03-28T02:08:46.848Z,98.10
2018-03-28T02:11:15.155Z,97.90
2018-03-28T02:13:43.404Z,97.90
2018-03-28T02:16:11.713Z,97.80
2018-03-28T02:18:39.869Z,97.80
2018-03-28T02:21:09.321Z,97.50
2018-03-28T02:23:37.532Z,97.60
2018-03-28T02:26:05.833Z,97.20
2018-03-28T02:28:34.109Z,97.10
2018-03-28T02:31:02.300Z,97.30
2018-03-28T02:33:30.538Z,97.30
2018-03-28T02:35:59.478Z,97.20
2018-03-28T02:38:27.725Z,97.20
2018-03-28T02:40:55.903Z,97.10
2018-03-28T02:43:24.176Z,97.00
2018-03-28T02:45:52.492Z,96.90
2018-03-28T02:48:20.699Z,96.80
2018-03-28T02:50:48.870Z,96.70
2018-03-28T02:53:17.255Z,96.70
2018-03-28T02:55:45.418Z,96.70
2018-03-28T02:58:13.576Z,96.80
2018-03-28T03:00:41.741Z,96.90
2018-03-28T03:03:09.906Z,96.90
2018-03-28T03:05:38.035Z,96.90
2018-03-28T03:08:06.225Z,96.90
2018-03-28T03:10:34.376Z,96.80
2018-03-28T03:13:03.296Z,96.60
2018-03-28T03:15:32.284Z,96.50
2018-03-28T03:18:00.435Z,96.60
2018-03-28T03:20:28.849Z,96.60
2018-03-28T03:22:57.031Z,96.60
2018-03-28T03:25:25.185Z,96.60
2018-03-28T03:27:53.552Z,96.60
2018-03-28T03:30:21.767Z,96.50
2018-03-28T03:32:50.087Z,96.40
2018-03-28T03:35:18.993Z,96.40
2018-03-28T03:37:47.274Z,96.30
2018-03-28T03:40:15.438Z,96.30
2018-03-28T03:42:43.677Z,96.30
2018-03-28T03:45:11.844Z,96.20
2018-03-28T03:47:40.037Z,96.00
2018-03-28T03:50:08.208Z,95.90
2018-03-28T03:52:36.536Z,95.90
2018-03-28T03:55:05.482Z,95.80
2018-03-28T03:57:33.626Z,95.80
2018-03-28T04:00:01.798Z,95.80
2018-03-28T04:02:29.951Z,95.80
2018-03-28T04:04:58.103Z,95.70
2018-03-28T04:07:26.333Z,95.70
2018-03-28T04:09:54.496Z,95.70
2018-03-28T04:12:22.644Z,95.70
2018-03-28T04:14:50.803Z,95.60
2018-03-28T04:17:19.739Z,95.60
2018-03-28T04:19:47.895Z,95.60
2018-03-28T04:22:16.374Z,95.50
2018-03-28T04:24:45.646Z,95.20
2018-03-28T04:27:13.976Z,95.00
2018-03-28T04:29:42.227Z,94.90
2018-03-28T04:32:10.407Z,94.60
2018-03-28T04:34:38.688Z,94.80
2018-03-28T04:37:06.832Z,94.50
2018-03-28T04:39:35.830Z,94.50
2018-03-28T04:42:04.016Z,94.40
2018-03-28T04:44:32.240Z,94.60
2018-03-28T04:47:00.432Z,94.70
2018-03-28T04:49:29.011Z,95.00
2018-03-28T04:51:58.011Z,95.30
2018-03-28T04:54:26.184Z,95.30
2018-03-28T04:56:55.105Z,95.50
2018-03-28T04:59:23.246Z,95.50
2018-03-28T05:01:52.207Z,95.50
2018-03-28T05:04:20.641Z,95.40
2018-03-28T05:06:48.992Z,95.30
2018-03-28T05:09:18.021Z,95.00
2018-03-28T05:11:46.351Z,95.00
2018-03-28T05:14:14.520Z,94.70
2018-03-28T05:16:44.340Z,95.20
2018-03-28T05:19:12.634Z,95.20
2018-03-28T05:21:41.562Z,93.60
2018-03-28T05:24:10.004Z,93.60
2018-03-28T05:26:38.291Z,93.00
2018-03-28T05:29:06.552Z,93.30
2018-03-28T05:31:35.482Z,94.00
2018-03-28T05:34:03.636Z,94.10
2018-03-28T05:36:32.060Z,94.40
2018-03-28T05:39:00.253Z,94.50
2018-03-28T05:41:29.183Z,94.70
2018-03-28T05:43:57.372Z,94.70
2018-03-28T05:46:25.543Z,94.70
2018-03-28T05:48:53.860Z,94.60
2018-03-28T05:51:22.043Z,94.70
2018-03-28T05:53:50.348Z,94.60
2018-03-28T05:56:18.668Z,94.40
2018-03-28T05:58:46.818Z,94.20
2018-03-28T06:01:14.995Z,94.10
2018-03-28T06:03:43.164Z,94.10
2018-03-28T06:06:11.320Z,93.80
2018-03-28T06:08:40.280Z,93.70
2018-03-28T06:11:08.579Z,93.70
2018-03-28T06:13:37.487Z,93.60
2018-03-28T06:16:05.663Z,93.60
2018-03-28T06:18:33.824Z,93.60
2018-03-28T06:21:02.836Z,93.50
2018-03-28T06:23:31.006Z,93.50
2018-03-28T06:25:59.151Z,93.30
2018-03-28T06:28:28.062Z,93.20
2018-03-28T06:30:56.216Z,93.20
2018-03-28T06:33:25.456Z,92.90
2018-03-28T06:35:53.670Z,92.90
2018-03-28T06:38:21.851Z,92.80
2018-03-28T06:40:50.015Z,92.70
2018-03-28T06:43:18.964Z,92.40
2018-03-28T06:45:47.128Z,92.40
2018-03-28T06:48:15.372Z,92.20
2018-03-28T06:50:44.287Z,92.00
2018-03-28T06:53:13.342Z,92.00
2018-03-28T06:55:41.526Z,92.00
2018-03-28T06:58:09.672Z,91.90
2018-03-28T07:00:38.017Z,91.70
2018-03-28T07:03:06.342Z,91.60
2018-03-28T07:05:35.289Z,91.40
2018-03-28T07:08:03.460Z,91.40
2018-03-28T07:10:31.625Z,91.20
2018-03-28T07:12:59.771Z,91.10
2018-03-28T07:15:28.568Z,91.20
2018-03-28T07:17:57.642Z,91.30
2018-03-28T07:20:26.038Z,91.00
2018-03-28T07:22:54.211Z,90.90
2018-03-28T07:25:23.125Z,90.40
2018-03-28T07:27:52.200Z,90.20
2018-03-28T07:30:21.470Z,90.20
2018-03-28T07:32:49.708Z,90.10
2018-03-28T07:35:17.858Z,91.40
2018-03-28T07:37:46.829Z,85.20
2018-03-28T07:40:14.974Z,85.10
2018-03-28T07:42:43.343Z,83.90
2018-03-28T07:45:11.610Z,81.50
2018-03-28T07:47:39.772Z,81.20
2018-03-28T07:50:08.033Z,81.30
2018-03-28T07:52:37.000Z,81.20
2018-03-28T07:55:05.372Z,81.20
2018-03-28T07:57:33.782Z,80.50
2018-03-28T08:00:01.980Z,79.80
2018-03-28T08:02:30.162Z,80.60
2018-03-28T08:04:58.633Z,80.70
2018-03-28T08:07:26.809Z,80.10
2018-03-28T08:09:54.973Z,79.60
2018-03-28T08:12:23.239Z,80.30
2018-03-28T08:14:52.180Z,80.10
2018-03-28T08:17:20.515Z,79.30
2018-03-28T08:19:48.706Z,80.20
2018-03-28T08:22:17.099Z,79.70
2018-03-28T08:24:45.266Z,79.90
2018-03-28T08:27:13.414Z,79.70
2018-03-28T08:29:41.648Z,79.80
2018-03-28T08:32:09.806Z,80.00
2018-03-28T08:34:37.981Z,80.00
2018-03-28T08:37:06.170Z,79.40
2018-03-28T08:39:34.328Z,79.60
2018-03-28T08:42:02.641Z,79.80
2018-03-28T08:44:32.351Z,79.00
2018-03-28T08:47:01.286Z,78.30
2018-03-28T08:49:29.484Z,78.30
2018-03-28T08:51:57.694Z,78.80
2018-03-28T08:54:27.015Z,77.80
2018-03-28T08:56:55.211Z,77.80
2018-03-28T08:59:23.658Z,77.20
2018-03-28T09:01:51.853Z,77.30
2018-03-28T09:04:20.208Z,76.40
2018-03-28T09:06:48.385Z,76.80
2018-03-28T09:09:17.310Z,78.10
2018-03-28T09:11:45.480Z,78.20
2018-03-28T09:14:13.818Z,79.40
2018-03-28T09:16:42.830Z,80.80
2018-03-28T09:19:11.229Z,80.80
2018-03-28T09:21:39.368Z,82.00
2018-03-28T09:24:08.360Z,82.30
2018-03-28T09:26:37.282Z,81.70
2018-03-28T09:29:09.565Z,81.70
2018-03-28T09:31:37.734Z,81.60
2018-03-28T09:34:05.960Z,82.60
2018-03-28T09:36:34.405Z,82.60
2018-03-28T09:39:03.319Z,82.70
2018-03-28T09:41:31.670Z,81.90
2018-03-28T09:43:59.976Z,81.50
2018-03-28T09:46:28.233Z,81.40
2018-03-28T09:49:00.123Z,80.50
2018-03-28T09:51:29.018Z,81.50
2018-03-28T09:53:57.961Z,81.80
2018-03-28T09:56:26.134Z,81.70
2018-03-28T09:58:54.286Z,82.50
2018-03-28T10:01:28.310Z,83.20
2018-03-28T10:04:02.558Z,83.80
2018-03-28T10:06:31.784Z,83.60
2018-03-28T10:09:01.580Z,83.10
2018-03-28T10:11:30.143Z,83.10
2018-03-28T10:13:59.825Z,82.60
2018-03-28T10:16:28.061Z,82.60
2018-03-28T10:18:56.992Z,83.00
2018-03-28T10:21:25.151Z,83.00
2018-03-28T10:23:53.888Z,83.70
2018-03-28T10:26:22.815Z,85.60
2018-03-28T10:28:51.854Z,85.20
2018-03-28T10:31:20.178Z,85.20
2018-03-28T10:33:49.174Z,86.60
2018-03-28T10:36:18.164Z,86.50
2018-03-28T10:38:47.414Z,85.70
2018-03-28T10:41:15.566Z,85.60
2018-03-28T10:43:43.757Z,84.90
2018-03-28T10:46:11.893Z,84.10
2018-03-28T10:48:40.805Z,85.60
2018-03-28T10:51:08.975Z,85.60
2018-03-28T10:53:38.527Z,85.40
2018-03-28T10:56:06.663Z,85.40
2018-03-28T10:58:34.821Z,85.00
2018-03-28T11:01:02.957Z,84.40
2018-03-28T11:03:31.095Z,85.60
2018-03-28T11:05:59.395Z,84.70
2018-03-28T11:08:27.689Z,86.60
2018-03-28T11:10:56.266Z,86.80
2018-03-28T11:13:24.434Z,86.40
2018-03-28T11:15:52.587Z,86.50
2018-03-28T11:18:20.923Z,86.10
2018-03-28T11:20:49.173Z,86.80
2018-03-28T11:23:17.988Z,87.00
2018-03-28T11:25:46.347Z,87.00
2018-03-28T11:28:15.286Z,86.20
2018-03-28T11:30:43.453Z,86.20
2018-03-28T11:33:11.607Z,86.60
2018-03-28T11:35:39.756Z,88.00
2018-03-28T11:38:08.654Z,87.80
2018-03-28T11:40:37.870Z,87.50
2018-03-28T11:43:06.034Z,87.50
2018-03-28T11:45:34.949Z,88.70
2018-03-28T11:48:03.116Z,88.70
2018-03-28T11:50:31.407Z,89.10
2018-03-28T11:52:59.643Z,89.10
2018-03-28T11:55:28.542Z,87.90
2018-03-28T11:57:56.688Z,88.00
2018-03-28T12:00:26.695Z,89.10
2018-03-28T12:02:57.918Z,89.30
2018-03-28T12:05:26.056Z,89.30
2018-03-28T12:07:54.295Z,89.80
2018-03-28T12:10:26.540Z,89.90
2018-03-28T12:12:54.686Z,90.40
2018-03-28T12:15:22.938Z,90.40
2018-03-28T12:17:51.951Z,90.60
2018-03-28T12:20:20.208Z,90.60
2018-03-28T12:22:48.348Z,90.50
2018-03-28T12:25:16.568Z,90.70
2018-03-28T12:27:45.458Z,90.80
2018-03-28T12:30:13.597Z,90.80
2018-03-28T12:32:41.815Z,91.10
2018-03-28T12:35:09.973Z,90.80
2018-03-28T12:37:38.887Z,91.00
2018-03-28T12:40:07.118Z,90.90
2018-03-28T12:42:36.721Z,90.70
2018-03-28T12:45:05.050Z,90.70
2018-03-28T12:47:33.215Z,91.60
2018-03-28T12:50:01.616Z,91.30
2018-03-28T12:52:29.653Z,91.40
2018-03-28T12:54:57.896Z,91.60
2018-03-28T12:57:26.079Z,91.50
2018-03-28T12:59:55.217Z,91.30
2018-03-28T13:02:24.235Z,91.30
2018-03-28T13:04:52.379Z,91.30
2018-03-28T13:07:20.521Z,91.50
2018-03-28T13:09:48.706Z,91.90
2018-03-28T13:12:16.866Z,91.80
2018-03-28T13:14:45.012Z,91.70
2018-03-28T13:17:13.162Z,92.00
2018-03-28T13:19:41.367Z,91.90
2018-03-28T13:22:09.541Z,91.80
2018-03-28T13:24:37.758Z,91.50
2018-03-28T13:27:06.995Z,91.70
2018-03-28T13:29:35.162Z,91.70
2018-03-28T13:32:04.108Z,91.80
2018-03-28T13:34:32.486Z,91.80
2018-03-28T13:37:00.639Z,91.70
2018-03-28T13:39:29.650Z,91.90
2018-03-28T13:41:57.840Z,91.90
2018-03-28T13:44:26.008Z,91.70
2018-03-28T13:46:54.147Z,91.70
2018-03-28T13:49:22.294Z,91.60
2018-03-28T13:51:50.515Z,91.50
2018-03-28T13:54:18.641Z,91.40
2018-03-28T13:56:46.934Z,90.80
2018-03-28T13:59:15.347Z,90.40
2018-03-28T14:01:44.273Z,91.00
2018-03-28T14:04:12.417Z,90.90
2018-03-28T14:06:41.575Z,90.50
2018-03-28T14:09:09.774Z,90.90
2018-03-28T14:11:38.396Z,90.90
2018-03-28T14:14:06.587Z,90.60
2018-03-28T14:16:35.433Z,90.40
2018-03-28T14:19:04.345Z,90.50
2018-03-28T14:21:32.494Z,90.40
2018-03-28T14:24:01.430Z,90.60
2018-03-28T14:26:29.589Z,90.60
2018-03-28T14:28:57.738Z,90.40
2018-03-28T14:31:26.646Z,90.60
2018-03-28T14:33:54.808Z,90.60
2018-03-28T14:38:57.423Z,90.40
2018-03-28T14:41:25.593Z,90.60
2018-03-28T14:43:53.733Z,90.90
2018-03-28T14:46:22.829Z,91.10
2018-03-28T14:48:51.256Z,91.10
2018-03-28T14:51:19.416Z,91.60
2018-03-28T14:53:47.641Z,91.10
2018-03-28T14:56:15.787Z,91.20
2018-03-28T14:58:43.949Z,91.10
2018-03-28T15:01:12.507Z,90.70
2018-03-28T15:03:40.662Z,90.50
2018-03-28T15:06:09.735Z,88.90
2018-03-28T15:08:37.915Z,88.90
2018-03-28T15:11:06.179Z,88.50
2018-03-28T15:13:34.754Z,88.90
2018-03-28T15:16:02.916Z,89.50
2018-03-28T15:18:31.105Z,90.10
2018-03-28T15:20:59.295Z,90.70
2018-03-28T15:23:27.448Z,90.70
2018-03-28T15:25:55.801Z,90.90
2018-03-28T15:28:24.151Z,90.70
2018-03-28T15:30:53.148Z,91.30
2018-03-28T15:33:22.386Z,91.50
2018-03-28T15:35:50.534Z,91.50
2018-03-28T15:38:18.896Z,91.50
2018-03-28T15:40:47.951Z,91.70
2018-03-28T15:43:16.365Z,92.00
2018-03-28T15:45:45.313Z,91.90
2018-03-28T15:48:17.478Z,91.80
2018-03-28T15:50:45.649Z,92.50
2018-03-28T15:53:13.791Z,92.60
2018-03-28T15:55:41.985Z,92.80
2018-03-28T15:58:10.237Z,92.80
2018-03-28T16:00:38.404Z,93.70
2018-03-28T16:03:06.560Z,94.10
2018-03-28T16:05:35.470Z,94.70
2018-03-28T16:08:03.618Z,94.70
2018-03-28T16:10:32.533Z,94.10
2018-03-28T16:13:00.708Z,94.40
2018-03-28T16:15:29.609Z,94.20
2018-03-28T16:17:57.822Z,94.40
2018-03-28T16:20:25.972Z,94.10
2018-03-28T16:22:54.111Z,94.70
2018-03-28T16:25:23.718Z,94.50
2018-03-28T16:27:52.022Z,94.50
2018-03-28T16:30:20.272Z,94.40
2018-03-28T16:32:48.909Z,94.50
2018-03-28T16:35:17.978Z,94.20
2018-03-28T16:37:46.131Z,94.20
2018-03-28T16:40:15.018Z,93.20
2018-03-28T16:42:43.938Z,93.40
2018-03-28T16:45:12.176Z,93.40
2018-03-28T16:47:40.412Z,94.10
2018-03-28T16:50:08.886Z,94.00
2018-03-28T16:52:45.968Z,94.40
2018-03-28T16:55:14.160Z,94.90
2018-03-28T16:57:42.303Z,94.30
2018-03-28T17:00:10.688Z,94.50
2018-03-28T17:02:38.845Z,94.40
2018-03-28T17:05:06.976Z,94.60
2018-03-28T17:07:35.197Z,94.80
2018-03-28T17:10:03.383Z,94.90
2018-03-28T17:12:32.346Z,94.20
2018-03-28T17:15:00.490Z,94.20
2018-03-28T17:17:28.676Z,94.10
2018-03-28T17:19:57.572Z,93.40
2018-03-28T17:22:26.505Z,93.40
2018-03-28T17:24:54.649Z,93.40
2018-03-28T17:27:22.806Z,92.10
2018-03-28T17:29:51.704Z,92.70
2018-03-28T17:32:19.852Z,92.70
2018-03-28T17:34:48.891Z,92.70
2018-03-28T17:37:17.085Z,92.70
2018-03-28T17:39:45.244Z,92.70
2018-03-28T17:42:14.243Z,93.00
2018-03-28T17:44:42.433Z,93.00
2018-03-28T17:47:10.600Z,92.80
2018-03-28T17:49:38.822Z,92.90
2018-03-28T17:52:07.746Z,92.80
2018-03-28T17:54:35.936Z,92.80
2018-03-28T17:57:04.238Z,93.30
2018-03-28T17:59:32.453Z,92.30
2018-03-28T18:04:35.843Z,92.20
2018-03-28T18:07:03.998Z,91.90
2018-03-28T18:09:32.138Z,90.80
2018-03-28T18:12:00.286Z,90.80
2018-03-28T18:14:29.426Z,91.40
2018-03-28T18:16:57.560Z,91.10
2018-03-28T18:19:25.803Z,91.30
2018-03-28T18:21:53.957Z,91.50
2018-03-28T18:24:22.214Z,91.40
2018-03-28T18:26:50.533Z,91.70
2018-03-28T18:29:18.676Z,91.30
2018-03-28T18:31:46.895Z,91.40
2018-03-28T18:34:15.053Z,91.50
2018-03-28T18:36:44.125Z,91.70
2018-03-28T18:39:12.331Z,91.00
2018-03-28T18:41:41.271Z,91.20
2018-03-28T18:44:09.704Z,91.20
2018-03-28T18:46:39.397Z,91.50
2018-03-28T18:49:07.573Z,91.40
2018-03-28T18:51:35.722Z,91.70
2018-03-28T18:54:04.806Z,91.60
2018-03-28T18:56:32.971Z,91.80
2018-03-28T18:59:01.234Z,91.60
2018-03-28T19:01:29.382Z,91.60
2018-03-28T19:03:58.456Z,91.60
2018-03-28T19:06:26.648Z,91.50
2018-03-28T19:08:55.622Z,91.70
2018-03-28T19:11:23.854Z,91.60
2018-03-28T19:13:52.050Z,91.60
2018-03-28T19:16:20.192Z,91.80
2018-03-28T19:18:48.349Z,91.90
2018-03-28T19:21:16.649Z,91.90
2018-03-28T19:23:44.818Z,91.80
2018-03-28T19:26:13.170Z,91.80
2018-03-28T19:28:42.188Z,91.80
2018-03-28T19:31:10.371Z,91.80
2018-03-28T19:33:38.555Z,91.90
2018-03-28T19:36:06.700Z,91.40
2018-03-28T19:38:34.844Z,91.40
2018-03-28T19:41:03.694Z,91.50
2018-03-28T19:43:31.861Z,91.90
2018-03-28T19:46:00.112Z,91.60
2018-03-28T19:48:29.059Z,91.60
2018-03-28T19:50:57.220Z,92.00
2018-03-28T19:53:25.373Z,92.20
2018-03-28T19:55:53.551Z,92.20
2018-03-28T19:58:21.754Z,91.90
2018-03-28T20:00:50.910Z,92.00
2018-03-28T20:03:19.069Z,92.00
2018-03-28T20:05:47.220Z,92.10
2018-03-28T20:08:16.139Z,91.80
2018-03-28T20:10:44.304Z,91.80
2018-03-28T20:13:12.474Z,91.70
2018-03-28T20:15:40.830Z,91.90
2018-03-28T20:18:08.982Z,91.90
2018-03-28T20:20:37.165Z,91.60
2018-03-28T20:23:05.343Z,91.80
2018-03-28T20:25:33.515Z,91.60
2018-03-28T20:28:01.805Z,91.60
2018-03-28T20:30:30.035Z,91.60
2018-03-28T20:32:58.274Z,91.70
2018-03-28T20:35:27.194Z,91.50
2018-03-28T20:37:55.346Z,91.50
2018-03-28T20:40:23.510Z,91.40
2018-03-28T20:42:52.465Z,91.70
2018-03-28T20:45:20.624Z,91.60
2018-03-28T20:47:48.776Z,91.60
2018-03-28T20:50:16.975Z,91.40
2018-03-28T20:52:45.263Z,91.40
2018-03-28T20:55:13.568Z,91.30
2018-03-28T20:57:48.433Z,90.80
2018-03-28T21:00:16.724Z,90.80
2018-03-28T21:02:44.853Z,91.00
2018-03-28T21:05:13.791Z,90.70
2018-03-28T21:07:43.799Z,90.40
2018-03-28T21:10:12.024Z,90.40
2018-03-28T21:12:40.330Z,90.40
2018-03-28T21:15:08.595Z,90.50
2018-03-28T21:17:36.833Z,90.60
2018-03-28T21:20:06.287Z,90.90
2018-03-28T21:22:34.449Z,90.90
2018-03-28T21:25:03.863Z,91.10
2018-03-28T21:27:32.806Z,90.80
2018-03-28T21:30:00.932Z,90.90
2018-03-28T21:32:29.080Z,90.90
2018-03-28T21:34:58.146Z,91.30
2018-03-28T21:37:26.324Z,91.30
2018-03-28T21:39:54.698Z,91.20
2018-03-28T21:42:22.887Z,91.20
2018-03-28T21:44:51.043Z,91.30
2018-03-28T21:47:19.178Z,91.50
2018-03-28T21:49:47.618Z,91.60
2018-03-28T21:52:15.817Z,91.40
2018-03-28T21:54:44.289Z,91.30
2018-03-28T21:57:12.531Z,91.40
2018-03-28T21:59:40.683Z,91.30
2018-03-28T22:02:08.951Z,91.40
2018-03-28T22:04:37.255Z,91.40
2018-03-28T22:07:05.404Z,91.50
2018-03-28T22:09:35.254Z,91.50
2018-03-28T22:12:03.493Z,91.50
2018-03-28T22:14:32.005Z,91.50
2018-03-28T22:17:01.007Z,91.50
2018-03-28T22:19:29.339Z,91.40
2018-03-28T22:21:57.486Z,91.30
2018-03-28T22:24:25.665Z,91.30
2018-03-28T22:26:54.604Z,91.80
2018-03-28T22:29:22.917Z,91.40
2018-03-28T22:31:51.837Z,91.40
2018-03-28T22:34:20.027Z,91.40
2018-03-28T22:36:48.449Z,91.40
2018-03-28T22:39:16.964Z,91.40
2018-03-28T22:41:45.132Z,91.40
2018-03-28T22:44:13.321Z,91.00
2018-03-28T22:46:41.548Z,91.10
2018-03-28T22:49:09.729Z,91.10
2018-03-28T22:51:38.660Z,90.80
2018-03-28T22:54:07.603Z,90.80
2018-03-28T22:56:36.504Z,90.90
2018-03-28T22:59:05.409Z,91.20
2018-03-28T23:01:33.676Z,90.90
2018-03-28T23:04:02.610Z,90.40
2018-03-28T23:06:30.830Z,90.40
2018-03-28T23:08:58.991Z,90.40
2018-03-28T23:11:27.792Z,90.50
2018-03-28T23:13:55.959Z,90.30
2018-03-28T23:16:24.249Z,90.20
2018-03-28T23:18:52.550Z,90.10
2018-03-28T23:21:20.708Z,89.70
2018-03-28T23:23:49.640Z,89.40
2018-03-28T23:26:17.801Z,89.30
2018-03-28T23:28:46.039Z,89.30
2018-03-28T23:31:14.946Z,87.60
2018-03-28T23:33:43.121Z,87.50
2018-03-28T23:36:11.279Z,88.80
2018-03-28T23:38:39.522Z,89.10
2018-03-28T23:41:07.708Z,87.60
2018-03-28T23:43:35.883Z,88.60
2018-03-28T23:46:04.186Z,88.80
2018-03-28T23:48:33.159Z,89.30
2018-03-28T23:51:01.318Z,89.20
2018-03-28T23:53:29.477Z,89.30
2018-03-28T23:55:57.664Z,88.90
2018-03-28T23:58:31.694Z,88.90
